CYHYCYQH

Guest
Details From CYHY - HAY RIVER
To CYQH - WATSON LAKE
Flight Number -
Tags generated
Created
Modified
Stats Distance 413 nm / 764 km
Max Altitude 18,000 ft / 5,486 m
Waypoints 5
Social Downloads 0
Likes 0
Share VATSIM

Download

Looking for another format? Having issues loading an existing format? Contact us
Advertisement - Login to hide

Notes

Basic altitude profile: - Ascent Rate: 2500ft/min - Ascent Speed: 250kts - Cruise Altitude: 35000ft - Cruise Speed: 420kts - Descent Rate: 1500ft/min - Descent Speed: 250kts Options: - Use NATs: yes - Use PACOTS: yes - Use low airways: yes - Use high airways: yes

Route

CYHY YHY V112 FS BR16 QH CYQH

ID Type Via Altitude Latitude Longitude Leg Dist Tot Dist Heading (true) Name
O CYHY APT - 0 ft / 0 m 60.84062˚ -115.78424˚ - 0 nm - HAY RIVER
YHY VOR - 200 ft / 61 m 60.83628˚ -115.80328˚ 0 nm 0 nm 245° / 245° HAY RIVER VOR-DME
FS NDB V112 (AWY-LO) 18,000 ft / 5,486 m 61.78583˚ -121.26056˚ 167 nm 167 nm 292° / 288° FT SIMPSON NDB
QH NDB BR16 (AWY-LO) 8,100 ft / 2,469 m 60.17667˚ -128.84494˚ 240 nm 408 nm 250° / 243° WATSON LAKE NDB
O CYQH APT - 0 ft / 0 m 60.11750˚ -128.82056˚ 3 nm 412 nm 168° / 168° WATSON LAKE

Altitude Profile

Advertisement - Login to hide

Weather


0- 5 10 15 20 25 30 35+ Temperature / ° C

Clouds and Precipitation
Forecast for 2017-12-18 18:00 UTC. Updated 2 hours ago

Ground ~20,000 ft ~40,000 ft Winds

CYHY

Details ICAO CYHY (YHY)
Name HAY RIVER
Region Canada
Timezone America/Yellowknife (UTC-7.0)
Stats Elevation 543 ft / 166 m (AMSL)
Location 60.840621° -115.784243°
Runways 2
Magnetic Variation 16.956° E

METAR

CYHY 181600Z 30014G20KT 15SM DRSN SCT018 BKN022 M15/M18 A2974 RMK SC4SC3 SLP089

Decode

TAF

TAF CYHY 181138Z 1812/1824 30018G28KT P6SM -SN BKN020 TEMPO 1812/1824 P6SM NSW BKN025 BECMG 1819/1821 32012KT RMK NXT FCST BY 181800Z

Decode

Departure Runways

ID Width Length Bearing (true) Bearing (mag) Surface Threshold Offset Overrun Length
04 150 ft / 46 m 4,043 ft / 1,232 m 66.34° 49.38° Dirt 0 ft / 0 m 0 ft / 0 m
13 150 ft / 46 m 6,056 ft / 1,846 m 156.90° 139.94° Asphalt 0 ft / 0 m 0 ft / 0 m
22 150 ft / 46 m 4,043 ft / 1,232 m 246.36° 229.40° Dirt 0 ft / 0 m 0 ft / 0 m
31 150 ft / 46 m 6,056 ft / 1,846 m 336.92° 319.96° Asphalt 0 ft / 0 m 0 ft / 0 m

CYQH

Details ICAO CYQH (YQH)
Name WATSON LAKE
Region Canada
Timezone America/Whitehorse (UTC-8.0)
Stats Elevation 2,255 ft / 687 m (AMSL)
Location 60.117502° -128.820560°
Runways 1
Magnetic Variation 19.785° E

METAR

CYQH 181600Z 29002KT 20SM SCT076 M20/M22 A2975 RMK AC4 SLP135

Decode

TAF

TAF CYQH 181138Z 1812/1824 VRB03KT P6SM FEW070 RMK NXT FCST BY 181800Z

Decode

Destination Runways

ID Width Length Bearing (true) Bearing (mag) Surface Threshold Offset Overrun Length
08 150 ft / 46 m 5,462 ft / 1,665 m 109.49° 89.70° Asphalt 0 ft / 0 m 0 ft / 0 m
26 150 ft / 46 m 5,462 ft / 1,665 m 289.51° 269.72° Asphalt 0 ft / 0 m 0 ft / 0 m